»·PEaware :: DAL572 KSAN-KSNA

DAL572 :: KSAN-KSNA

FLIGHT INFORMATION

Flight Status: Arrived
Operator:
Delta Air Lines
More flights by this operator :: More flights under this callsign
Pilot: Anonymous 8799 (8799)
Aircraft: BOEING 737-800
(B738)
More flights by this aircraft type
Origin: KSAN San Diego Intl-Lindbergh
United States
Destination: KSNA John Wayne-Orange Co
United States
More flights between these airports :: More routes between these airports
Route: +CWARD2 SLI
File this flight plan on PilotEdge
Remarks:
Altitude:
(Current/Filed)
10,000ft
Speed:
(Current/Filed)
400kts
Departed: 04-Oct-18 08:33 AM
Arrived: 04-Oct-18 08:56 AM
Distance/Time
Traveled:
66nm/0:23
Distance/Time
To Go:
Arrived

Flight Plot

Page will automatically refresh every two minutes.

Flight plan parsing failed; only flown route is shown


Map Options




Map Legend


Flown Route
Filed Route
Departure Airport
Arrival Airport
Navaid (VOR, NDB)
Fix

Horizontal Profiles

Position Reports

Time Latitude Longitude Heading Altitude Ground
Speed
04-Oct-18 08:09 32.733772 -117.202067 145 17ft 0kts
04-Oct-18 08:10 32.733772 -117.202067 145 17ft 0kts
04-Oct-18 08:11 32.733772 -117.202067 145 18ft 0kts
04-Oct-18 08:12 32.733772 -117.202067 145 18ft 0kts
04-Oct-18 08:13 32.733772 -117.202067 145 18ft 0kts
04-Oct-18 08:14 32.733772 -117.202067 145 18ft 0kts
04-Oct-18 08:15 32.733772 -117.202067 145 18ft 0kts
04-Oct-18 08:16 32.733772 -117.202067 145 18ft 0kts
04-Oct-18 08:17 32.733772 -117.202067 145 18ft 0kts
04-Oct-18 08:18 32.733772 -117.202067 145 18ft 0kts
04-Oct-18 08:19 32.733772 -117.202067 145 18ft 0kts
04-Oct-18 08:20 32.733892 -117.202465 70 17ft 2kts
04-Oct-18 08:21 32.733506 -117.202701 344 18ft 0kts
04-Oct-18 08:22 32.733506 -117.202701 344 17ft 0kts
04-Oct-18 08:23 32.733762 -117.202747 357 17ft 3kts
04-Oct-18 08:24 32.734025 -117.202708 12 17ft 0kts
04-Oct-18 08:25 32.734025 -117.202708 12 17ft 0kts
04-Oct-18 08:26 32.734025 -117.202708 12 17ft 0kts
04-Oct-18 08:27 32.734025 -117.202708 12 17ft 0kts
04-Oct-18 08:28 32.734025 -117.202708 12 17ft 0kts
04-Oct-18 08:29 32.734025 -117.202708 12 17ft 0kts
04-Oct-18 08:30 32.735351 -117.202021 66 18ft 10kts
04-Oct-18 08:31 32.734594 -117.198198 106 20ft 14kts
04-Oct-18 08:32 32.732851 -117.190992 107 21ft 16kts
04-Oct-18 08:33 32.730938 -117.183098 106 20ft 22kts
04-Oct-18 08:34 32.729511 -117.177261 101 21ft 9kts
04-Oct-18 08:35 32.732650 -117.186052 285 23ft 148kts
04-Oct-18 08:36 32.756492 -117.242774 302 3001ft 256kts
04-Oct-18 08:37 32.797835 -117.315653 302 7700ft 277kts
04-Oct-18 08:38 32.845216 -117.389577 306 10000ft 285kts
04-Oct-18 08:39 32.893347 -117.464073 306 9994ft 284kts
04-Oct-18 08:40 32.941439 -117.538836 306 10000ft 284kts
04-Oct-18 08:41 32.989417 -117.613595 306 9998ft 283kts
04-Oct-18 08:42 33.036400 -117.686967 306 10000ft 283kts
04-Oct-18 08:43 33.088707 -117.756406 318 10000ft 284kts
04-Oct-18 08:44 33.147734 -117.815147 318 10001ft 283kts
04-Oct-18 08:45 33.211343 -117.866675 354 9745ft 292kts
04-Oct-18 08:46 33.290106 -117.856329 6 8020ft 283kts
04-Oct-18 08:47 33.366522 -117.844250 6 8006ft 271kts
04-Oct-18 08:48 33.440411 -117.832474 6 8009ft 268kts
04-Oct-18 08:49 33.513936 -117.820721 6 8009ft 268kts
04-Oct-18 08:50 33.588071 -117.808868 6 7555ft 270kts
04-Oct-18 08:51 33.660710 -117.797684 6 6151ft 260kts
04-Oct-18 08:52 33.721999 -117.759412 31 4794ft 239kts
04-Oct-18 08:53 33.777708 -117.722592 359 3357ft 228kts
04-Oct-18 08:54 33.794581 -117.776861 234 2223ft 201kts
04-Oct-18 08:55 33.759326 -117.815675 209 2202ft 164kts
04-Oct-18 08:56 33.717790 -117.842121 207 1024ft 156kts
04-Oct-18 08:57 33.683594 -117.863732 208 119ft 127kts
04-Oct-18 08:58 33.669417 -117.871986 139 64ft 10kts
04-Oct-18 08:59 33.670266 -117.869684 43 64ft 20kts
04-Oct-18 09:00 33.675063 -117.865889 26 64ft 20kts
04-Oct-18 09:01 33.675291 -117.864924 117 64ft 0kts
04-Oct-18 09:02 33.675291 -117.864924 117 64ft 0kts
04-Oct-18 09:03 33.675291 -117.864924 117 64ft 0kts
04-Oct-18 09:04 33.675291 -117.864924 117 64ft 0kts
04-Oct-18 09:05 33.675291 -117.864924 117 64ft 0kts

Navigation Log

Ident Type
Flight plan parsing failed, navigation log unavailable